SBI728 UWGG-UUDD
Flight info
| Callsign | SBI728 |
|---|---|
| Flight time | 0h 44m |
| Altitude | 26000 |
| Route | LARNO P985 OSPOM T787 URAGO |
| Aircraft | A320/M-SDE3FGHIRWY/LB1 |
Departure
| Time | 2026-04-21 20:39 |
|---|---|
| Airport | Nizhny Novgorod / Strigino International Airport (UWGG) |
Arrival
| Time | 2026-04-21 21:23 |
|---|---|
| Airport | Domodedovo International Airport (UUDD) |
| Time | Latitude | Longitude | Altitude | Speed | Heading |
|---|---|---|---|---|---|
| 2026-04-21 20:25 | 56.21977 | 43.78765 | 260 ft | 0 kts | 104° |
| 2026-04-21 20:33 | 56.21981 | 43.78739 | 260 ft | 2 kts | 104° |
| 2026-04-21 20:34 | 56.21985 | 43.78710 | 260 ft | 2 kts | 105° |
| 2026-04-21 20:34 | 56.21989 | 43.78682 | 260 ft | 2 kts | 114° |
| 2026-04-21 20:34 | 56.22000 | 43.78662 | 260 ft | 2 kts | 196° |
| 2026-04-21 20:34 | 56.22016 | 43.78669 | 260 ft | 2 kts | 192° |
| 2026-04-21 20:35 | 56.22031 | 43.78675 | 260 ft | 2 kts | 191° |
| 2026-04-21 20:35 | 56.22037 | 43.78677 | 260 ft | 0 kts | 191° |
| 2026-04-21 20:36 | 56.22022 | 43.78672 | 260 ft | 3 kts | 191° |
| 2026-04-21 20:36 | 56.22001 | 43.78665 | 260 ft | 5 kts | 191° |
| 2026-04-21 20:36 | 56.21967 | 43.78653 | 260 ft | 5 kts | 191° |
| 2026-04-21 20:36 | 56.21935 | 43.78641 | 260 ft | 5 kts | 192° |
| 2026-04-21 20:37 | 56.21912 | 43.78601 | 260 ft | 5 kts | 243° |
| 2026-04-21 20:37 | 56.21919 | 43.78521 | 260 ft | 8 kts | 283° |
| 2026-04-21 20:37 | 56.21934 | 43.78402 | 260 ft | 11 kts | 281° |
| 2026-04-21 20:37 | 56.21954 | 43.78254 | 259 ft | 13 kts | 302° |
| 2026-04-21 20:38 | 56.22006 | 43.78222 | 260 ft | 0 kts | 11° |
| 2026-04-21 20:38 | 56.22010 | 43.78223 | 260 ft | 4 kts | 11° |
| 2026-04-21 20:38 | 56.22192 | 43.78286 | 259 ft | 62 kts | 11° |
| 2026-04-21 20:38 | 56.22832 | 43.78520 | 260 ft | 123 kts | 10° |
| 2026-04-21 20:39 | 56.23819 | 43.78877 | 420 ft | 155 kts | 11° |
| 2026-04-21 20:39 | 56.24873 | 43.79277 | 1115 ft | 154 kts | 10° |
| 2026-04-21 20:39 | 56.25935 | 43.79665 | 1775 ft | 161 kts | 9° |
| 2026-04-21 20:39 | 56.27101 | 43.79588 | 2090 ft | 183 kts | 334° |
| 2026-04-21 20:40 | 56.28010 | 43.77836 | 2468 ft | 210 kts | 292° |
| 2026-04-21 20:40 | 56.28021 | 43.75071 | 2887 ft | 241 kts | 251° |
| 2026-04-21 20:40 | 56.26998 | 43.72517 | 3368 ft | 265 kts | 223° |
| 2026-04-21 20:40 | 56.25487 | 43.70498 | 4152 ft | 275 kts | 213° |
| 2026-04-21 20:41 | 56.23823 | 43.68697 | 4982 ft | 283 kts | 211° |
| 2026-04-21 20:41 | 56.22102 | 43.66903 | 5848 ft | 289 kts | 212° |
| 2026-04-21 20:41 | 56.20364 | 43.65037 | 6712 ft | 293 kts | 213° |
| 2026-04-21 20:41 | 56.18626 | 43.63083 | 7602 ft | 296 kts | 214° |
| 2026-04-21 20:42 | 56.16919 | 43.61085 | 8488 ft | 298 kts | 215° |
| 2026-04-21 20:42 | 56.15189 | 43.59009 | 9386 ft | 301 kts | 216° |
| 2026-04-21 20:42 | 56.13447 | 43.56893 | 10159 ft | 307 kts | 216° |
| 2026-04-21 20:42 | 56.11615 | 43.54654 | 10426 ft | 330 kts | 216° |
| 2026-04-21 20:43 | 56.09682 | 43.52288 | 10966 ft | 341 kts | 216° |
| 2026-04-21 20:43 | 56.07680 | 43.49847 | 11729 ft | 345 kts | 216° |
| 2026-04-21 20:43 | 56.05706 | 43.47452 | 12497 ft | 349 kts | 216° |
| 2026-04-21 20:43 | 56.03687 | 43.45010 | 13266 ft | 352 kts | 215° |
| 2026-04-21 20:44 | 56.01646 | 43.42552 | 13983 ft | 355 kts | 215° |
| 2026-04-21 20:44 | 55.99592 | 43.40082 | 14666 ft | 357 kts | 215° |
| 2026-04-21 20:44 | 55.97528 | 43.37596 | 15371 ft | 359 kts | 215° |
| 2026-04-21 20:44 | 55.95453 | 43.35095 | 16056 ft | 361 kts | 215° |
| 2026-04-21 20:45 | 55.93366 | 43.32585 | 16746 ft | 363 kts | 215° |
| 2026-04-21 20:45 | 55.91271 | 43.30069 | 17428 ft | 365 kts | 215° |
| 2026-04-21 20:45 | 55.89161 | 43.27536 | 18109 ft | 367 kts | 215° |
| 2026-04-21 20:45 | 55.87031 | 43.24986 | 18619 ft | 371 kts | 216° |
| 2026-04-21 20:46 | 55.84874 | 43.22406 | 19108 ft | 376 kts | 216° |
| 2026-04-21 20:46 | 55.82728 | 43.19730 | 19628 ft | 378 kts | 221° |
| 2026-04-21 20:46 | 55.80857 | 43.16456 | 20168 ft | 377 kts | 233° |
| 2026-04-21 20:46 | 55.79390 | 43.12625 | 20710 ft | 377 kts | 244° |
| 2026-04-21 20:47 | 55.78372 | 43.08323 | 21240 ft | 377 kts | 255° |
| 2026-04-21 20:47 | 55.77696 | 43.03823 | 21759 ft | 378 kts | 257° |
| 2026-04-21 20:47 | 55.77025 | 42.99293 | 22286 ft | 381 kts | 257° |
| 2026-04-21 20:47 | 55.76338 | 42.94733 | 22809 ft | 383 kts | 257° |
| 2026-04-21 20:48 | 55.75639 | 42.90155 | 23305 ft | 385 kts | 256° |
| 2026-04-21 20:48 | 55.74930 | 42.85550 | 23748 ft | 388 kts | 256° |
| 2026-04-21 20:48 | 55.74217 | 42.80927 | 24154 ft | 390 kts | 256° |
| 2026-04-21 20:48 | 55.73501 | 42.76265 | 24545 ft | 392 kts | 257° |
| 2026-04-21 20:49 | 55.72783 | 42.71583 | 24945 ft | 394 kts | 257° |
| 2026-04-21 20:49 | 55.72060 | 42.66876 | 25327 ft | 397 kts | 256° |
| 2026-04-21 20:49 | 55.71331 | 42.62147 | 25723 ft | 399 kts | 256° |
| 2026-04-21 20:49 | 55.70596 | 42.57398 | 25878 ft | 398 kts | 256° |
| 2026-04-21 20:50 | 55.69875 | 42.52767 | 25896 ft | 383 kts | 256° |
| 2026-04-21 20:50 | 55.69168 | 42.48243 | 25908 ft | 379 kts | 256° |
| 2026-04-21 20:50 | 55.68465 | 42.43756 | 25898 ft | 377 kts | 256° |
| 2026-04-21 20:50 | 55.67764 | 42.39284 | 25904 ft | 377 kts | 256° |
| 2026-04-21 20:51 | 55.67061 | 42.34817 | 25905 ft | 376 kts | 256° |
| 2026-04-21 20:51 | 55.66358 | 42.30354 | 25904 ft | 376 kts | 256° |
| 2026-04-21 20:51 | 55.65651 | 42.25883 | 25906 ft | 376 kts | 256° |
| 2026-04-21 20:51 | 55.64957 | 42.21483 | 25906 ft | 376 kts | 256° |
| 2026-04-21 20:52 | 55.64252 | 42.17024 | 25901 ft | 376 kts | 256° |
| 2026-04-21 20:52 | 55.63543 | 42.12561 | 25892 ft | 376 kts | 256° |
| 2026-04-21 20:52 | 55.62831 | 42.08105 | 25895 ft | 376 kts | 256° |
| 2026-04-21 20:52 | 55.62120 | 42.03653 | 25895 ft | 376 kts | 256° |
| 2026-04-21 20:53 | 55.61408 | 41.99202 | 25899 ft | 376 kts | 256° |
| 2026-04-21 20:53 | 55.60690 | 41.94748 | 25894 ft | 376 kts | 256° |
| 2026-04-21 20:53 | 55.59967 | 41.90298 | 25906 ft | 376 kts | 256° |
| 2026-04-21 20:53 | 55.59246 | 41.85860 | 25902 ft | 376 kts | 256° |
| 2026-04-21 20:54 | 55.58746 | 41.81321 | 25906 ft | 374 kts | 266° |
| 2026-04-21 20:54 | 55.58650 | 41.76743 | 25904 ft | 373 kts | 270° |
| 2026-04-21 20:54 | 55.58604 | 41.72158 | 25904 ft | 373 kts | 270° |
| 2026-04-21 20:54 | 55.58551 | 41.67573 | 25908 ft | 373 kts | 270° |
| 2026-04-21 20:55 | 55.58488 | 41.62986 | 25912 ft | 373 kts | 270° |
| 2026-04-21 20:55 | 55.58418 | 41.58396 | 25905 ft | 373 kts | 270° |
| 2026-04-21 20:55 | 55.58349 | 41.53807 | 25906 ft | 374 kts | 270° |
| 2026-04-21 20:55 | 55.58281 | 41.49215 | 25907 ft | 374 kts | 270° |
| 2026-04-21 20:56 | 55.58214 | 41.44621 | 25892 ft | 374 kts | 270° |
| 2026-04-21 20:56 | 55.58145 | 41.40028 | 25890 ft | 374 kts | 270° |
| 2026-04-21 20:56 | 55.58072 | 41.35438 | 25891 ft | 374 kts | 270° |
| 2026-04-21 20:56 | 55.58000 | 41.30840 | 25895 ft | 374 kts | 270° |
| 2026-04-21 20:57 | 55.57930 | 41.26244 | 25900 ft | 375 kts | 270° |
| 2026-04-21 20:57 | 55.57855 | 41.21638 | 25901 ft | 375 kts | 270° |
| 2026-04-21 20:57 | 55.57779 | 41.17035 | 25902 ft | 375 kts | 270° |
| 2026-04-21 20:57 | 55.57699 | 41.12424 | 25904 ft | 375 kts | 270° |
| 2026-04-21 20:58 | 55.57615 | 41.07816 | 25902 ft | 375 kts | 269° |
| 2026-04-21 20:58 | 55.57528 | 41.03214 | 25903 ft | 375 kts | 269° |
| 2026-04-21 20:58 | 55.57443 | 40.98671 | 25905 ft | 375 kts | 269° |
| 2026-04-21 20:58 | 55.57355 | 40.94064 | 25906 ft | 375 kts | 269° |
| 2026-04-21 20:59 | 55.57266 | 40.89455 | 25906 ft | 375 kts | 269° |
| 2026-04-21 20:59 | 55.57173 | 40.84844 | 25907 ft | 375 kts | 269° |
| 2026-04-21 20:59 | 55.57079 | 40.80237 | 25904 ft | 375 kts | 269° |
| 2026-04-21 20:59 | 55.56985 | 40.75632 | 25904 ft | 375 kts | 269° |
| 2026-04-21 21:00 | 55.56888 | 40.71026 | 25904 ft | 375 kts | 269° |
| 2026-04-21 21:00 | 55.56788 | 40.66420 | 25892 ft | 375 kts | 269° |
| 2026-04-21 21:00 | 55.56686 | 40.61815 | 25889 ft | 375 kts | 269° |
| 2026-04-21 21:00 | 55.56580 | 40.57256 | 25890 ft | 375 kts | 269° |
| 2026-04-21 21:01 | 55.56471 | 40.52653 | 25895 ft | 375 kts | 269° |
| 2026-04-21 21:01 | 55.56363 | 40.48048 | 25892 ft | 376 kts | 269° |
| 2026-04-21 21:01 | 55.56253 | 40.43436 | 25895 ft | 376 kts | 269° |
| 2026-04-21 21:01 | 55.56134 | 40.38820 | 25896 ft | 376 kts | 269° |
| 2026-04-21 21:02 | 55.56006 | 40.34205 | 25897 ft | 376 kts | 269° |
| 2026-04-21 21:02 | 55.55874 | 40.29592 | 25901 ft | 376 kts | 269° |
| 2026-04-21 21:02 | 55.55742 | 40.24981 | 25902 ft | 376 kts | 269° |
| 2026-04-21 21:02 | 55.55610 | 40.20372 | 25902 ft | 376 kts | 269° |
| 2026-04-21 21:03 | 55.55478 | 40.15768 | 25875 ft | 375 kts | 269° |
| 2026-04-21 21:03 | 55.55343 | 40.11214 | 25619 ft | 366 kts | 269° |
| 2026-04-21 21:03 | 55.55210 | 40.06777 | 25365 ft | 358 kts | 269° |
| 2026-04-21 21:03 | 55.55064 | 40.02410 | 25113 ft | 355 kts | 265° |
| 2026-04-21 21:04 | 55.54596 | 39.98134 | 24858 ft | 355 kts | 255° |
| 2026-04-21 21:04 | 55.53746 | 39.94033 | 24617 ft | 355 kts | 251° |
| 2026-04-21 21:04 | 55.52852 | 39.89968 | 24362 ft | 355 kts | 251° |
| 2026-04-21 21:04 | 55.51976 | 39.85980 | 24072 ft | 351 kts | 251° |
| 2026-04-21 21:05 | 55.51096 | 39.81974 | 23610 ft | 350 kts | 251° |
| 2026-04-21 21:05 | 55.50218 | 39.77975 | 23126 ft | 349 kts | 251° |
| 2026-04-21 21:05 | 55.49343 | 39.74006 | 22664 ft | 346 kts | 251° |
| 2026-04-21 21:05 | 55.48467 | 39.70057 | 22207 ft | 344 kts | 251° |
| 2026-04-21 21:06 | 55.47879 | 39.67404 | 21911 ft | 343 kts | 251° |
| 2026-04-21 21:06 | 55.47011 | 39.63494 | 21469 ft | 341 kts | 251° |
| 2026-04-21 21:06 | 55.46158 | 39.59658 | 21035 ft | 340 kts | 251° |
| 2026-04-21 21:06 | 55.45288 | 39.55746 | 20593 ft | 338 kts | 251° |
| 2026-04-21 21:07 | 55.44430 | 39.51892 | 20154 ft | 337 kts | 251° |
| 2026-04-21 21:07 | 55.43586 | 39.48104 | 19745 ft | 336 kts | 251° |
| 2026-04-21 21:07 | 55.42731 | 39.44274 | 19317 ft | 336 kts | 251° |
| 2026-04-21 21:07 | 55.41877 | 39.40456 | 18891 ft | 335 kts | 251° |
| 2026-04-21 21:08 | 55.41021 | 39.36634 | 18458 ft | 335 kts | 251° |
| 2026-04-21 21:08 | 55.40166 | 39.32824 | 18010 ft | 335 kts | 251° |
| 2026-04-21 21:08 | 55.39306 | 39.29005 | 17577 ft | 334 kts | 251° |
| 2026-04-21 21:08 | 55.38448 | 39.25212 | 17157 ft | 333 kts | 251° |
| 2026-04-21 21:09 | 55.37593 | 39.21436 | 16754 ft | 332 kts | 251° |
| 2026-04-21 21:09 | 55.36738 | 39.17668 | 16338 ft | 331 kts | 251° |
| 2026-04-21 21:09 | 55.35886 | 39.13914 | 15935 ft | 331 kts | 251° |
| 2026-04-21 21:09 | 55.35032 | 39.10155 | 15532 ft | 331 kts | 251° |
| 2026-04-21 21:10 | 55.34177 | 39.06398 | 15125 ft | 331 kts | 251° |
| 2026-04-21 21:10 | 55.33323 | 39.02659 | 14715 ft | 331 kts | 251° |
| 2026-04-21 21:10 | 55.32464 | 38.98911 | 14328 ft | 331 kts | 251° |
| 2026-04-21 21:10 | 55.31612 | 38.95216 | 13923 ft | 321 kts | 251° |
| 2026-04-21 21:11 | 55.30783 | 38.91617 | 13527 ft | 318 kts | 251° |
| 2026-04-21 21:11 | 55.29957 | 38.88007 | 13117 ft | 318 kts | 251° |
| 2026-04-21 21:11 | 55.29131 | 38.84404 | 12717 ft | 318 kts | 251° |
| 2026-04-21 21:11 | 55.28314 | 38.80860 | 12323 ft | 317 kts | 251° |
| 2026-04-21 21:12 | 55.27488 | 38.77273 | 11924 ft | 317 kts | 251° |
| 2026-04-21 21:12 | 55.26658 | 38.73678 | 11507 ft | 309 kts | 250° |
| 2026-04-21 21:12 | 55.25859 | 38.70235 | 11118 ft | 303 kts | 250° |
| 2026-04-21 21:12 | 55.25076 | 38.66854 | 10746 ft | 303 kts | 250° |
| 2026-04-21 21:13 | 55.24286 | 38.63445 | 10409 ft | 301 kts | 250° |
| 2026-04-21 21:13 | 55.23494 | 38.60044 | 10019 ft | 302 kts | 250° |
| 2026-04-21 21:13 | 55.22698 | 38.56639 | 9587 ft | 300 kts | 250° |
| 2026-04-21 21:13 | 55.21917 | 38.53307 | 9177 ft | 294 kts | 250° |
| 2026-04-21 21:14 | 55.21137 | 38.49986 | 8755 ft | 294 kts | 250° |
| 2026-04-21 21:14 | 55.20362 | 38.46675 | 8341 ft | 293 kts | 250° |
| 2026-04-21 21:14 | 55.19591 | 38.43382 | 7951 ft | 289 kts | 250° |
| 2026-04-21 21:14 | 55.18839 | 38.40178 | 7506 ft | 283 kts | 250° |
| 2026-04-21 21:15 | 55.18092 | 38.36994 | 7069 ft | 283 kts | 250° |
| 2026-04-21 21:15 | 55.17342 | 38.33805 | 6642 ft | 283 kts | 249° |
| 2026-04-21 21:15 | 55.16594 | 38.30652 | 6254 ft | 277 kts | 249° |
| 2026-04-21 21:15 | 55.15865 | 38.27587 | 5767 ft | 269 kts | 249° |
| 2026-04-21 21:16 | 55.15146 | 38.24566 | 5344 ft | 268 kts | 249° |
| 2026-04-21 21:16 | 55.14445 | 38.21621 | 5131 ft | 253 kts | 249° |
| 2026-04-21 21:16 | 55.13949 | 38.18761 | 4836 ft | 242 kts | 270° |
| 2026-04-21 21:16 | 55.14215 | 38.15982 | 4997 ft | 233 kts | 296° |
| 2026-04-21 21:17 | 55.15122 | 38.13729 | 4932 ft | 229 kts | 322° |
| 2026-04-21 21:17 | 55.16496 | 38.12487 | 4730 ft | 223 kts | 349° |
| 2026-04-21 21:17 | 55.18031 | 38.12303 | 4555 ft | 221 kts | 1° |
| 2026-04-21 21:17 | 55.19571 | 38.12276 | 4391 ft | 221 kts | 0° |
| 2026-04-21 21:18 | 55.21090 | 38.12241 | 4267 ft | 214 kts | 0° |
| 2026-04-21 21:18 | 55.22547 | 38.12205 | 4159 ft | 205 kts | 0° |
| 2026-04-21 21:18 | 55.23949 | 38.12165 | 4060 ft | 197 kts | 359° |
| 2026-04-21 21:18 | 55.25250 | 38.11653 | 3978 ft | 188 kts | 338° |
| 2026-04-21 21:19 | 55.26355 | 38.10452 | 3683 ft | 186 kts | 328° |
| 2026-04-21 21:19 | 55.27411 | 38.09178 | 3407 ft | 182 kts | 329° |
| 2026-04-21 21:19 | 55.28447 | 38.07935 | 3158 ft | 179 kts | 329° |
| 2026-04-21 21:19 | 55.29459 | 38.06727 | 2905 ft | 171 kts | 329° |
| 2026-04-21 21:20 | 55.30404 | 38.05597 | 2692 ft | 158 kts | 329° |
| 2026-04-21 21:20 | 55.31265 | 38.04566 | 2497 ft | 144 kts | 330° |
| 2026-04-21 21:20 | 55.32077 | 38.03596 | 2305 ft | 138 kts | 330° |
| 2026-04-21 21:20 | 55.32832 | 38.02566 | 2132 ft | 137 kts | 324° |
| 2026-04-21 21:21 | 55.33525 | 38.01425 | 1943 ft | 136 kts | 322° |
| 2026-04-21 21:21 | 55.34231 | 38.00348 | 1751 ft | 134 kts | 329° |
| 2026-04-21 21:21 | 55.35073 | 37.99364 | 1679 ft | 160 kts | 333° |
| 2026-04-21 21:21 | 55.36076 | 37.98309 | 1679 ft | 173 kts | 333° |
| 2026-04-21 21:22 | 55.37160 | 37.97196 | 1536 ft | 180 kts | 331° |
| 2026-04-21 21:22 | 55.38091 | 37.95962 | 1250 ft | 157 kts | 323° |
| 2026-04-21 21:22 | 55.38951 | 37.94840 | 853 ft | 149 kts | 326° |
| 2026-04-21 21:22 | 55.39777 | 37.93828 | 599 ft | 140 kts | 325° |
| 2026-04-21 21:23 | 55.40518 | 37.92946 | 545 ft | 97 kts | 326° |
| 2026-04-21 21:23 | 55.40782 | 37.92634 | 556 ft | 31 kts | 326° |
| 2026-04-21 21:23 | 55.40884 | 37.92445 | 561 ft | 21 kts | 298° |
| 2026-04-21 21:23 | 55.40925 | 37.92241 | 564 ft | 13 kts | 286° |
| 2026-04-21 21:24 | 55.40948 | 37.92103 | 556 ft | 9 kts | 286° |
| 2026-04-21 21:24 | 55.40963 | 37.92014 | 568 ft | 7 kts | 286° |
| 2026-04-21 21:24 | 55.40978 | 37.91923 | 560 ft | 9 kts | 290° |
| 2026-04-21 21:24 | 55.41019 | 37.91834 | 564 ft | 11 kts | 316° |
| 2026-04-21 21:25 | 55.41082 | 37.91726 | 563 ft | 14 kts | 315° |
| 2026-04-21 21:25 | 55.41160 | 37.91586 | 569 ft | 18 kts | 315° |
| 2026-04-21 21:25 | 55.41224 | 37.91473 | 566 ft | 11 kts | 315° |
| 2026-04-21 21:25 | 55.41283 | 37.91368 | 566 ft | 13 kts | 315° |
| 2026-04-21 21:26 | 55.41342 | 37.91265 | 573 ft | 12 kts | 315° |
| 2026-04-21 21:26 | 55.41406 | 37.91176 | 569 ft | 11 kts | 327° |
| 2026-04-21 21:26 | 55.41446 | 37.91080 | 572 ft | 11 kts | 271° |
| 2026-04-21 21:26 | 55.41406 | 37.90960 | 573 ft | 13 kts | 236° |
| 2026-04-21 21:27 | 55.41372 | 37.90803 | 574 ft | 15 kts | 291° |
| 2026-04-21 21:27 | 55.41416 | 37.90705 | 576 ft | 8 kts | 308° |
| 2026-04-21 21:27 | 55.41457 | 37.90683 | 577 ft | 6 kts | 10° |
| 2026-04-21 21:27 | 55.41488 | 37.90725 | 581 ft | 5 kts | 36° |
| 2026-04-21 21:28 | 55.41496 | 37.90735 | 579 ft | 0 kts | 36° |